Time;durP1;ratioP1;P1;durP2;ratioP2;P2;SDS_P1;SDS_P2;PMS_P1;PMS_P2;Temp;Humidity;BMP_temperature;BMP_pressure;BME280_temperature;BME280_humidity;BME280_pressure;Samples;Min_cycle;Max_cycle;Signal;HPM_P1;HPM_P2
2019/07/25 00:01:02;;;;;;;15.1;12.5;;;;;;;25.15;59.85449;961.2366;;;;
2019/07/25 00:03:27;;;;;;;12.2;8.4;;;;;;;25.09;61.08398;961.1937;;;;
2019/07/25 00:05:53;;;;;;;13.4;8.7;;;;;;;25.04;61.26758;961.2288;;;;
2019/07/25 00:08:18;;;;;;;11.3;8.5;;;;;;;25.02;61.52539;961.2438;;;;
2019/07/25 00:10:43;;;;;;;11.7;9.3;;;;;;;25.18;59.81055;961.259;;;;
2019/07/25 00:13:08;;;;;;;13.3;8.9;;;;;;;24.99;62.05762;961.2947;;;;
2019/07/25 00:15:34;;;;;;;11.5;9.2;;;;;;;24.95;61.52832;961.2528;;;;
2019/07/25 00:17:59;;;;;;;13.7;9.3;;;;;;;25;61.81934;961.2637;;;;
2019/07/25 00:20:24;;;;;;;11.7;9;;;;;;;24.94;62.94141;961.2989;;;;
2019/07/25 00:22:49;;;;;;;12.8;9.4;;;;;;;24.91;62.15234;961.3127;;;;
2019/07/25 00:25:15;;;;;;;11.2;9.7;;;;;;;24.91;62.4375;961.2977;;;;
2019/07/25 00:27:39;;;;;;;12.4;9.2;;;;;;;24.88;62.67285;961.2634;;;;
2019/07/25 00:30:04;;;;;;;12.9;8.9;;;;;;;24.86;63.00195;961.2626;;;;
2019/07/25 00:32:29;;;;;;;12.4;9.8;;;;;;;24.87;62.59863;961.2263;;;;
2019/07/25 00:34:54;;;;;;;11.7;9.1;;;;;;;24.86;62.27637;961.2393;;;;
2019/07/25 00:37:20;;;;;;;12.6;9.5;;;;;;;24.81;62.78125;961.2053;;;;
2019/07/25 00:39:45;;;;;;;14.4;9.7;;;;;;;24.75;64.00879;961.2115;;;;
2019/07/25 00:42:10;;;;;;;10.5;9.3;;;;;;;24.7;64.15723;961.2269;;;;
2019/07/25 00:44:35;;;;;;;10.9;8.9;;;;;;;24.68;64.0459;961.2922;;;;
2019/07/25 00:47:01;;;;;;;13.3;9.4;;;;;;;24.7;63.20508;961.2288;;;;
2019/07/25 00:49:26;;;;;;;12.2;9.3;;;;;;;24.63;64.16895;961.254;;;;
2019/07/25 00:51:51;;;;;;;12.2;9.8;;;;;;;24.6;63.53711;961.2522;;;;
2019/07/25 00:54:16;;;;;;;15;9.3;;;;;;;24.53;63.98828;961.2712;;;;
2019/07/25 00:56:41;;;;;;;11.4;9;;;;;;;24.53;64.00195;961.2071;;;;
2019/07/25 00:59:06;;;;;;;11.1;8.9;;;;;;;24.5;64.30566;961.1997;;;;
2019/07/25 01:01:31;;;;;;;12;9.2;;;;;;;24.4;64.79004;961.1717;;;;
2019/07/25 01:03:57;;;;;;;13.2;10.3;;;;;;;24.27;65.12695;961.1738;;;;
2019/07/25 01:06:22;;;;;;;13.2;9.6;;;;;;;24.32;64.7666;961.2213;;;;
2019/07/25 01:08:47;;;;;;;13.8;9.5;;;;;;;24.33;64.96875;961.2244;;;;
2019/07/25 01:11:12;;;;;;;15.4;9.8;;;;;;;24.28;65.12793;961.2043;;;;
2019/07/25 01:13:37;;;;;;;14.2;10.5;;;;;;;24.24;66.00195;961.2512;;;;
2019/07/25 01:16:02;;;;;;;12.9;9;;;;;;;24.2;66.12598;961.1783;;;;
2019/07/25 01:18:27;;;;;;;13.2;10;;;;;;;24.11;66.82422;961.1864;;;;
2019/07/25 01:20:53;;;;;;;12.1;9;;;;;;;24.07;66.7373;961.1356;;;;
2019/07/25 01:23:18;;;;;;;12.4;9.5;;;;;;;24.1;67.14355;961.2158;;;;
2019/07/25 01:25:43;;;;;;;14.2;10.2;;;;;;;24.02;66.75293;961.2123;;;;
2019/07/25 01:28:08;;;;;;;12.9;9.8;;;;;;;24;67.11719;961.1641;;;;
2019/07/25 01:30:33;;;;;;;13.1;9.8;;;;;;;23.96;66.80176;961.1792;;;;
2019/07/25 01:32:58;;;;;;;12;9.5;;;;;;;23.92;66.37012;961.162;;;;
2019/07/25 01:35:24;;;;;;;12.4;9.8;;;;;;;23.91;65.57324;961.1658;;;;
2019/07/25 01:37:49;;;;;;;11;9.7;;;;;;;23.85;64.72168;961.1461;;;;
2019/07/25 01:40:14;;;;;;;10.7;9.1;;;;;;;23.83;64.24316;961.1501;;;;
2019/07/25 01:42:39;;;;;;;11.4;8.6;;;;;;;23.87;63.63379;961.183;;;;
2019/07/25 01:45:04;;;;;;;11.5;8.9;;;;;;;23.84;63.99609;961.1788;;;;
2019/07/25 01:47:30;;;;;;;10;8.5;;;;;;;23.82;63.49609;961.192;;;;
2019/07/25 01:49:55;;;;;;;11.2;8.6;;;;;;;23.86;63.14648;961.1556;;;;
2019/07/25 01:52:20;;;;;;;11.6;8.7;;;;;;;23.87;63.15918;961.1213;;;;
2019/07/25 01:54:45;;;;;;;10.8;8.5;;;;;;;23.84;63.2627;961.1439;;;;
2019/07/25 01:57:10;;;;;;;11.1;8.4;;;;;;;23.75;63.1416;961.1323;;;;
2019/07/25 01:59:35;;;;;;;10.7;8.4;;;;;;;23.73;63.03125;961.1191;;;;
2019/07/25 02:02:00;;;;;;;10.7;8.6;;;;;;;23.71;63.24316;961.1487;;;;
2019/07/25 02:04:25;;;;;;;13;8.1;;;;;;;23.72;61.91602;961.1699;;;;
2019/07/25 02:06:50;;;;;;;9.7;8.2;;;;;;;23.75;62.4541;961.1783;;;;
2019/07/25 02:09:15;;;;;;;10;8.8;;;;;;;23.7;62.01953;961.1558;;;;
2019/07/25 02:11:40;;;;;;;9.8;8.5;;;;;;;23.71;61.22559;961.1446;;;;
2019/07/25 02:14:05;;;;;;;9.3;8.4;;;;;;;23.61;60.95313;961.134;;;;
2019/07/25 02:16:30;;;;;;;10.8;8.5;;;;;;;23.59;60.80859;961.1683;;;;
2019/07/25 02:18:55;;;;;;;9.4;8.2;;;;;;;23.57;60.91113;961.1501;;;;
2019/07/25 02:21:20;;;;;;;9;8.1;;;;;;;23.5;61.0332;961.1611;;;;
2019/07/25 02:23:46;;;;;;;9.6;8.3;;;;;;;23.51;61.29492;961.2009;;;;
2019/07/25 02:26:11;;;;;;;11.4;8.5;;;;;;;23.64;57.20996;961.182;;;;
2019/07/25 02:28:36;;;;;;;9.2;8.3;;;;;;;23.54;57.59961;961.1559;;;;
2019/07/25 02:31:01;;;;;;;9;7.8;;;;;;;23.58;57.6875;961.1649;;;;
2019/07/25 02:33:26;;;;;;;10;8.2;;;;;;;23.52;57.9873;961.1334;;;;
2019/07/25 02:35:51;;;;;;;10.5;8.3;;;;;;;23.51;58.22461;961.1777;;;;
2019/07/25 02:38:16;;;;;;;11.3;8.8;;;;;;;23.48;58.3623;961.1701;;;;
2019/07/25 02:40:42;;;;;;;9.3;8.3;;;;;;;23.49;58.39941;961.1766;;;;
2019/07/25 02:43:07;;;;;;;8.4;7.6;;;;;;;23.45;58.96289;961.1841;;;;
2019/07/25 02:45:32;;;;;;;10.4;8.5;;;;;;;23.38;59.74805;961.2536;;;;
2019/07/25 02:47:57;;;;;;;11.5;8.9;;;;;;;23.32;61.54199;961.2527;;;;
2019/07/25 02:50:22;;;;;;;10.4;8.8;;;;;;;23.28;62.95703;961.2374;;;;
2019/07/25 02:52:48;;;;;;;11.5;10.2;;;;;;;23.17;64.73047;961.2272;;;;
2019/07/25 02:55:13;;;;;;;12.8;10.2;;;;;;;23.12;66.21484;961.2319;;;;
2019/07/25 02:57:38;;;;;;;13.1;10.2;;;;;;;23.19;66.0127;961.2625;;;;
2019/07/25 03:00:03;;;;;;;14.8;10.4;;;;;;;23.14;66.33594;961.2389;;;;
2019/07/25 03:02:28;;;;;;;11.9;10.3;;;;;;;23;66.94238;961.2867;;;;
2019/07/25 03:04:53;;;;;;;13.6;10.8;;;;;;;22.92;67.45117;961.3112;;;;
2019/07/25 03:07:18;;;;;;;11.5;10.4;;;;;;;22.89;68.01465;961.3501;;;;
2019/07/25 03:09:43;;;;;;;11.9;10.3;;;;;;;22.91;67.64063;961.2847;;;;
2019/07/25 03:12:09;;;;;;;12.4;10.6;;;;;;;22.84;67.9375;961.3304;;;;
2019/07/25 03:14:34;;;;;;;13.3;11;;;;;;;22.8;68.0957;961.2836;;;;
2019/07/25 03:16:59;;;;;;;13.5;10.7;;;;;;;22.72;68.10742;961.338;;;;
2019/07/25 03:19:24;;;;;;;12.9;11;;;;;;;22.81;68.54688;961.3091;;;;
2019/07/25 03:21:49;;;;;;;16;11.3;;;;;;;22.79;68.10645;961.3203;;;;
2019/07/25 03:24:15;;;;;;;12.4;11.1;;;;;;;22.7;68.58984;961.3276;;;;
2019/07/25 03:26:40;;;;;;;15.4;11.5;;;;;;;22.72;68.33301;961.3876;;;;
2019/07/25 03:29:05;;;;;;;11.9;10.6;;;;;;;22.74;68.34766;961.3549;;;;
2019/07/25 03:31:31;;;;;;;11.9;10.5;;;;;;;22.72;68.27441;961.3842;;;;
2019/07/25 03:33:56;;;;;;;13.5;11.4;;;;;;;22.71;68.05859;961.3773;;;;
2019/07/25 03:36:21;;;;;;;12.1;10.5;;;;;;;22.76;67.75781;961.3942;;;;
2019/07/25 03:38:46;;;;;;;12.9;11.2;;;;;;;22.73;67.71777;961.4264;;;;
2019/07/25 03:41:11;;;;;;;13.6;10.6;;;;;;;22.73;68.28613;961.4497;;;;
2019/07/25 03:43:36;;;;;;;12;10.8;;;;;;;22.74;67.41211;961.4838;;;;
2019/07/25 03:46:01;;;;;;;11.2;9.9;;;;;;;22.72;62.77051;961.4752;;;;
2019/07/25 03:48:27;;;;;;;11.6;9.9;;;;;;;22.74;64.37109;961.498;;;;
2019/07/25 03:50:52;;;;;;;12.8;10.3;;;;;;;22.75;63.82813;961.5359;;;;
2019/07/25 03:53:17;;;;;;;11.5;9.6;;;;;;;22.73;63.99121;961.5569;;;;
2019/07/25 03:55:42;;;;;;;11.2;9.5;;;;;;;22.75;63.76953;961.5233;;;;
2019/07/25 03:58:07;;;;;;;10.1;9.1;;;;;;;22.76;64.01855;961.5588;;;;
2019/07/25 04:02:28;;;;;;;10.2;9.1;;;;;;;22.82;63.45898;961.5265;;;;
2019/07/25 04:04:53;;;;;;;10.9;9.5;;;;;;;22.81;63.49316;961.5649;;;;
2019/07/25 04:07:18;;;;;;;10.3;9.3;;;;;;;22.81;63.75391;961.5524;;;;
2019/07/25 04:09:43;;;;;;;9.8;8.8;;;;;;;22.84;63.75781;961.6058;;;;
2019/07/25 04:12:08;;;;;;;12;9.5;;;;;;;22.85;62.67285;961.5881;;;;
2019/07/25 04:14:33;;;;;;;10.6;9;;;;;;;22.81;63.36328;961.5715;;;;
2019/07/25 04:17:01;;;;;;;12.2;9.3;;;;;;;22.83;63.35547;961.6003;;;;
2019/07/25 04:19:23;;;;;;;11.4;9.8;;;;;;;22.79;63.29004;961.6301;;;;
2019/07/25 04:21:48;;;;;;;11;9.5;;;;;;;22.83;63.91113;961.6902;;;;
2019/07/25 04:24:14;;;;;;;11.6;9.6;;;;;;;22.85;63.72461;961.6844;;;;
2019/07/25 04:26:39;;;;;;;11.2;10.1;;;;;;;22.84;64.10254;961.6539;;;;
2019/07/25 04:29:04;;;;;;;11.5;9.1;;;;;;;22.89;64.19141;961.7092;;;;
2019/07/25 04:31:29;;;;;;;10.8;9.8;;;;;;;22.88;64.62793;961.7028;;;;
2019/07/25 04:33:54;;;;;;;10.8;9.7;;;;;;;22.94;64.67285;961.7151;;;;
2019/07/25 04:36:19;;;;;;;11.5;9.7;;;;;;;23.04;64.52148;961.7125;;;;
2019/07/25 04:38:44;;;;;;;11.3;9.7;;;;;;;23.04;64.72266;961.7174;;;;
2019/07/25 04:41:09;;;;;;;12.2;9.7;;;;;;;23.06;64.93848;961.7573;;;;
2019/07/25 04:43:35;;;;;;;12.1;10.2;;;;;;;23.01;65.47656;961.7356;;;;
2019/07/25 04:46:00;;;;;;;10.5;9.4;;;;;;;23.03;65.2666;961.7099;;;;
2019/07/25 04:48:25;;;;;;;13.5;10;;;;;;;23.1;65.48828;961.7191;;;;
2019/07/25 04:50:50;;;;;;;12.4;10.4;;;;;;;23.06;65.25781;961.7224;;;;
2019/07/25 04:53:15;;;;;;;13.1;10.4;;;;;;;23.07;64.82129;961.7231;;;;
2019/07/25 04:55:40;;;;;;;11.6;9.7;;;;;;;23.11;64.08301;961.7659;;;;
2019/07/25 04:58:05;;;;;;;12.1;10.1;;;;;;;23.2;63.87012;961.7826;;;;
2019/07/25 05:00:30;;;;;;;11.8;10.1;;;;;;;23.22;63.06641;961.7966;;;;
2019/07/25 05:02:56;;;;;;;13.8;9.5;;;;;;;23.22;63.61328;961.837;;;;
2019/07/25 05:05:21;;;;;;;12;10.3;;;;;;;23.26;64.00781;961.8901;;;;
2019/07/25 05:07:46;;;;;;;13.7;9.8;;;;;;;23.28;64.1416;961.8563;;;;
2019/07/25 05:10:11;;;;;;;11.6;9.6;;;;;;;23.29;63.78906;961.8525;;;;
2019/07/25 05:12:36;;;;;;;15.3;9.9;;;;;;;23.33;64.62207;961.8872;;;;
2019/07/25 05:15:01;;;;;;;13;9.9;;;;;;;23.36;64.80566;961.8748;;;;
2019/07/25 05:17:26;;;;;;;11.1;9.5;;;;;;;23.37;64.96094;961.8447;;;;
2019/07/25 05:19:51;;;;;;;14.5;10.2;;;;;;;23.38;65.625;961.8684;;;;
2019/07/25 05:22:16;;;;;;;11.9;9.6;;;;;;;23.41;65.4043;961.8562;;;;
2019/07/25 05:24:42;;;;;;;15;10.4;;;;;;;23.42;65.9873;961.9055;;;;
2019/07/25 05:27:07;;;;;;;14.5;10.4;;;;;;;23.43;65.7041;961.9194;;;;
2019/07/25 05:29:32;;;;;;;19.1;10.2;;;;;;;23.54;64.29785;961.9006;;;;
2019/07/25 05:31:57;;;;;;;15;10.4;;;;;;;23.61;62.89746;961.8538;;;;
2019/07/25 05:34:22;;;;;;;14.3;9.7;;;;;;;23.64;63.13867;961.8686;;;;
2019/07/25 05:36:47;;;;;;;14.5;9.4;;;;;;;23.63;64.10938;961.8597;;;;
2019/07/25 05:39:13;;;;;;;15.6;10.1;;;;;;;23.61;63.83398;961.8563;;;;
2019/07/25 05:41:38;;;;;;;15.5;10.1;;;;;;;23.59;64.96777;961.9233;;;;
2019/07/25 05:44:03;;;;;;;14.6;10.6;;;;;;;23.59;65.34766;961.9001;;;;
2019/07/25 05:46:28;;;;;;;15.4;11.1;;;;;;;23.58;67.03125;961.9127;;;;
2019/07/25 05:48:53;;;;;;;17.7;11.3;;;;;;;23.63;65.68457;961.9015;;;;
2019/07/25 05:51:18;;;;;;;15.4;10.7;;;;;;;23.66;66.28418;961.9064;;;;
2019/07/25 05:53:43;;;;;;;19;11.1;;;;;;;23.69;66.86914;961.8958;;;;
2019/07/25 05:56:08;;;;;;;17.7;11.1;;;;;;;23.71;66.5752;961.8918;;;;
2019/07/25 05:58:34;;;;;;;16.1;10.7;;;;;;;23.76;65.90625;961.8808;;;;
2019/07/25 06:00:58;;;;;;;18.4;10.5;;;;;;;23.8;65.99609;961.8744;;;;
2019/07/25 06:03:24;;;;;;;15.7;10.6;;;;;;;23.83;66.32031;961.8176;;;;
2019/07/25 06:05:49;;;;;;;15;10;;;;;;;23.89;65.52246;961.8491;;;;
2019/07/25 06:08:14;;;;;;;15;9.8;;;;;;;23.93;65.3623;961.8481;;;;
2019/07/25 06:10:39;;;;;;;12.8;9.8;;;;;;;23.97;65.10742;961.8353;;;;
2019/07/25 06:13:04;;;;;;;20.6;11.4;;;;;;;24.03;65.44922;961.8144;;;;
2019/07/25 06:15:29;;;;;;;13;10.1;;;;;;;24.06;65.01367;961.8549;;;;
2019/07/25 06:17:55;;;;;;;17.9;11.2;;;;;;;24.08;64.38867;961.8153;;;;
2019/07/25 06:20:20;;;;;;;16;10.4;;;;;;;24.15;63.63965;961.8387;;;;
2019/07/25 06:22:45;;;;;;;14.7;10.5;;;;;;;24.23;63.37598;961.8233;;;;
2019/07/25 06:25:15;;;;;;;19.5;10.8;;;;;;;24.31;63.36426;961.8223;;;;
2019/07/25 06:27:40;;;;;;;17.4;10.8;;;;;;;24.43;62.95215;961.8039;;;;
2019/07/25 06:30:05;;;;;;;19.5;11.2;;;;;;;24.5;62.27441;961.7625;;;;
2019/07/25 06:32:30;;;;;;;19.3;10.5;;;;;;;24.63;61.84082;961.7664;;;;
2019/07/25 06:34:55;;;;;;;21.7;11;;;;;;;24.76;61.32324;961.7289;;;;
2019/07/25 06:37:20;;;;;;;20.1;10.8;;;;;;;24.8;61.90039;961.7825;;;;
2019/07/25 06:39:45;;;;;;;29.5;12.7;;;;;;;24.9;61.47266;961.7825;;;;
2019/07/25 06:42:10;;;;;;;19.4;10.5;;;;;;;25.09;60.09473;961.7903;;;;
2019/07/25 06:44:36;;;;;;;27.3;11.8;;;;;;;25.07;60.41504;961.7668;;;;
2019/07/25 06:47:01;;;;;;;19.7;10.5;;;;;;;25.11;60.58691;961.7537;;;;
2019/07/25 06:50:06;;;;;;;13.3;9.6;;;;;;;25.25;59.62988;961.7723;;;;
2019/07/25 06:52:32;;;;;;;13.6;9.4;;;;;;;25.35;59.17871;961.8206;;;;
2019/07/25 06:54:57;;;;;;;12.9;8.9;;;;;;;25.44;59.67871;961.8624;;;;
2019/07/25 06:57:22;;;;;;;11.7;8.8;;;;;;;25.57;58.98145;961.866;;;;
2019/07/25 06:59:47;;;;;;;13.2;9.3;;;;;;;25.93;55.81152;961.8578;;;;
2019/07/25 07:02:12;;;;;;;15.5;9.5;;;;;;;25.87;56.19727;961.8661;;;;
2019/07/25 07:04:37;;;;;;;11.1;9.2;;;;;;;25.85;56.93359;961.8353;;;;
2019/07/25 07:07:02;;;;;;;11.7;9.5;;;;;;;25.95;56.91016;961.8189;;;;
2019/07/25 07:09:27;;;;;;;13.4;10;;;;;;;26.14;56.19531;961.818;;;;
2019/07/25 07:11:52;;;;;;;11.5;9.5;;;;;;;26.03;57.86133;961.7767;;;;
2019/07/25 07:14:17;;;;;;;12.8;9.4;;;;;;;26.06;59.09375;961.7529;;;;
2019/07/25 07:16:43;;;;;;;12.7;8.9;;;;;;;26.19;59.74414;961.6633;;;;
2019/07/25 07:19:08;;;;;;;11.4;9.2;;;;;;;26.21;58.17188;961.6894;;;;
2019/07/25 07:21:33;;;;;;;14.6;8.9;;;;;;;26.55;58.15625;961.6032;;;;
2019/07/25 07:23:58;;;;;;;15.1;9.3;;;;;;;26.59;56.23926;961.6181;;;;
2019/07/25 07:26:23;;;;;;;10;8.8;;;;;;;26.66;56.3916;961.6317;;;;
2019/07/25 07:28:48;;;;;;;11.9;8.9;;;;;;;26.47;59.08789;961.6055;;;;
2019/07/25 07:31:13;;;;;;;13.9;9.5;;;;;;;26.44;59.25098;961.6534;;;;
2019/07/25 07:33:45;;;;;;;13.1;9.3;;;;;;;26.67;56.66699;961.6644;;;;
2019/07/25 07:36:10;;;;;;;8.9;8;;;;;;;26.65;58.55078;961.6601;;;;
2019/07/25 07:38:35;;;;;;;10.4;8.1;;;;;;;26.6;59.88184;961.6497;;;;
2019/07/25 07:41:00;;;;;;;10.9;8.5;;;;;;;26.67;59.17383;961.6981;;;;
2019/07/25 07:43:25;;;;;;;9.8;8.8;;;;;;;26.78;59.06934;961.7035;;;;
2019/07/25 07:45:51;;;;;;;13.3;9.1;;;;;;;26.8;58.5459;961.6867;;;;
2019/07/25 07:48:16;;;;;;;11.5;8.6;;;;;;;26.73;59.0752;961.652;;;;
2019/07/25 07:50:41;;;;;;;9.7;8.2;;;;;;;26.82;57.80957;961.6616;;;;
2019/07/25 07:53:06;;;;;;;9;7.8;;;;;;;26.84;59.26953;961.6631;;;;
2019/07/25 07:55:31;;;;;;;8.8;7.9;;;;;;;26.98;58.25879;961.6548;;;;
2019/07/25 07:57:56;;;;;;;13.9;8.6;;;;;;;26.98;57.99707;961.6398;;;;
2019/07/25 08:00:21;;;;;;;11.1;8.7;;;;;;;27.16;56.70605;961.6281;;;;
2019/07/25 08:02:47;;;;;;;13.2;8.2;;;;;;;27.24;56.66797;961.6169;;;;
2019/07/25 08:05:12;;;;;;;10.1;8;;;;;;;27.28;56.78125;961.6394;;;;
2019/07/25 08:07:37;;;;;;;14.6;8.7;;;;;;;27.28;57.52246;961.6629;;;;
2019/07/25 08:10:02;;;;;;;13.4;7.7;;;;;;;27.34;57.13477;961.6213;;;;
2019/07/25 08:12:27;;;;;;;11.6;7.8;;;;;;;27.35;56.98047;961.6231;;;;
2019/07/25 08:14:52;;;;;;;120.8;14.7;;;;;;;27.45;57.26855;961.613;;;;
2019/07/25 08:17:17;;;;;;;25.4;9;;;;;;;27.47;56.69727;961.6036;;;;
2019/07/25 08:19:42;;;;;;;13.5;8.3;;;;;;;27.57;55.69336;961.5516;;;;
2019/07/25 08:22:07;;;;;;;9.8;8.3;;;;;;;27.64;55.10254;961.58;;;;
2019/07/25 08:24:33;;;;;;;9.6;8.4;;;;;;;27.72;56.78809;961.5639;;;;
2019/07/25 08:26:58;;;;;;;12.2;7.4;;;;;;;27.72;56.50195;961.567;;;;
2019/07/25 08:29:23;;;;;;;10.6;7.6;;;;;;;27.74;55.2002;961.5387;;;;
2019/07/25 08:31:50;;;;;;;11.2;8.4;;;;;;;27.76;56.375;961.5446;;;;
2019/07/25 08:34:15;;;;;;;7.6;6.8;;;;;;;27.86;54.47168;961.5151;;;;
2019/07/25 08:36:40;;;;;;;8.1;7.3;;;;;;;27.99;54.73926;961.5005;;;;
2019/07/25 08:39:06;;;;;;;8.8;7.1;;;;;;;28.07;54.92871;961.4769;;;;
2019/07/25 08:41:31;;;;;;;9.7;7.6;;;;;;;28.22;54.13281;961.493;;;;
2019/07/25 08:43:56;;;;;;;8.6;6.5;;;;;;;28.29;53.56641;961.5112;;;;
2019/07/25 08:46:21;;;;;;;9.8;6.6;;;;;;;28.35;51.57227;961.5086;;;;
2019/07/25 08:48:46;;;;;;;14.9;7;;;;;;;28.49;51.93555;961.4919;;;;
2019/07/25 08:51:11;;;;;;;18.1;7.2;;;;;;;28.47;52.31641;961.4311;;;;
2019/07/25 08:53:36;;;;;;;13.5;6.3;;;;;;;28.49;51.86328;961.4779;;;;
2019/07/25 08:56:01;;;;;;;8.8;5.6;;;;;;;28.62;51.31543;961.4514;;;;
2019/07/25 08:58:26;;;;;;;8.1;6;;;;;;;28.7;50.65234;961.4592;;;;
2019/07/25 09:00:51;;;;;;;8;5.8;;;;;;;28.79;49.84766;961.4586;;;;
2019/07/25 09:03:16;;;;;;;25.3;6.4;;;;;;;28.95;49.85254;961.4592;;;;
2019/07/25 09:05:41;;;;;;;9.1;5;;;;;;;29.07;48.37695;961.4501;;;;
2019/07/25 09:08:06;;;;;;;9.1;5.3;;;;;;;29.14;46.4043;961.3976;;;;
2019/07/25 09:10:31;;;;;;;5.7;4.6;;;;;;;29.19;45.86914;961.391;;;;
2019/07/25 09:12:57;;;;;;;9.1;5.4;;;;;;;29.34;46.06543;961.4677;;;;
2019/07/25 09:15:22;;;;;;;9.9;5.2;;;;;;;29.44;46.65234;961.403;;;;
2019/07/25 09:17:47;;;;;;;6.3;4.9;;;;;;;29.51;45.61328;961.4075;;;;
2019/07/25 09:20:12;;;;;;;5.7;4.7;;;;;;;29.73;45.38379;961.3458;;;;
2019/07/25 09:22:37;;;;;;;7.4;5.3;;;;;;;29.68;44.3457;961.3575;;;;
2019/07/25 09:25:02;;;;;;;4.7;4.2;;;;;;;29.74;45.24023;961.3663;;;;
2019/07/25 09:27:27;;;;;;;6.1;4;;;;;;;29.81;44.12988;961.3219;;;;
2019/07/25 09:29:52;;;;;;;6.9;4.1;;;;;;;29.89;42.81543;961.3223;;;;
2019/07/25 09:32:17;;;;;;;10.3;4.1;;;;;;;29.87;43.57031;961.3452;;;;
2019/07/25 09:34:42;;;;;;;8.6;4.4;;;;;;;29.99;43.61914;961.2658;;;;
2019/07/25 09:37:07;;;;;;;7.4;4.2;;;;;;;30.21;42.94141;961.3156;;;;
2019/07/25 09:39:33;;;;;;;5.5;4;;;;;;;30.23;43.4248;961.2809;;;;
2019/07/25 09:41:58;;;;;;;7.8;4;;;;;;;30.23;43.52148;961.225;;;;
2019/07/25 09:44:23;;;;;;;6.5;4.3;;;;;;;30.35;42.4248;961.2514;;;;
2019/07/25 09:46:48;;;;;;;14.9;6;;;;;;;30.37;40.5127;961.213;;;;
2019/07/25 09:49:13;;;;;;;6.8;3.5;;;;;;;30.47;40.11328;961.1716;;;;
2019/07/25 09:51:38;;;;;;;6.9;3.4;;;;;;;30.52;40.28613;961.2115;;;;
2019/07/25 09:54:03;;;;;;;5.9;3;;;;;;;30.62;39.29492;961.1786;;;;
2019/07/25 09:56:28;;;;;;;5.9;3.2;;;;;;;30.84;40.27734;961.2191;;;;
2019/07/25 09:58:54;;;;;;;5.7;3.2;;;;;;;30.82;39.75781;961.2101;;;;
2019/07/25 10:01:19;;;;;;;6.2;3.1;;;;;;;30.92;38.14063;961.1652;;;;
2019/07/25 10:03:44;;;;;;;4;3;;;;;;;31.1;37.99805;961.1262;;;;
2019/07/25 10:06:09;;;;;;;5;3.1;;;;;;;31.07;39.82813;961.1783;;;;
2019/07/25 10:08:34;;;;;;;5.6;2.7;;;;;;;31.11;37.31348;961.1716;;;;
2019/07/25 10:10:59;;;;;;;6.2;3.1;;;;;;;31.36;36.42773;961.1603;;;;
2019/07/25 10:13:24;;;;;;;4.3;2.9;;;;;;;31.46;35.86914;961.1523;;;;
2019/07/25 10:15:56;;;;;;;5.7;2.7;;;;;;;31.37;36.5498;961.0595;;;;
2019/07/25 10:18:15;;;;;;;5.2;2.7;;;;;;;31.37;36.04297;961.0963;;;;
2019/07/25 10:20:40;;;;;;;4.3;2.4;;;;;;;31.38;36.26074;961.0746;;;;
2019/07/25 10:23:05;;;;;;;4.3;2.4;;;;;;;31.55;34.92285;961.1004;;;;
2019/07/25 10:25:30;;;;;;;6.4;2.5;;;;;;;31.39;35.27246;961.0792;;;;
2019/07/25 10:27:55;;;;;;;6.2;2.7;;;;;;;31.46;35.5918;961.0748;;;;
2019/07/25 10:30:20;;;;;;;8;3.3;;;;;;;31.51;36.27148;961.0659;;;;
2019/07/25 10:32:45;;;;;;;6.7;2.9;;;;;;;31.64;35.46094;961.0539;;;;
2019/07/25 10:35:10;;;;;;;3.8;2.7;;;;;;;31.69;35.79102;961.015;;;;
2019/07/25 10:37:35;;;;;;;5.7;3.1;;;;;;;31.71;35.98535;961.0728;;;;
2019/07/25 10:40:00;;;;;;;5;2.6;;;;;;;31.74;35.36035;960.9951;;;;
2019/07/25 10:42:25;;;;;;;5.6;2.7;;;;;;;31.82;34.88379;960.9917;;;;
2019/07/25 10:44:50;;;;;;;4.2;2.7;;;;;;;32;35.91211;960.962;;;;
2019/07/25 10:47:15;;;;;;;4.3;2.6;;;;;;;31.85;35.30762;960.9874;;;;
2019/07/25 10:49:40;;;;;;;7.2;2.6;;;;;;;31.94;34.50684;960.9258;;;;
2019/07/25 10:52:06;;;;;;;4;2.4;;;;;;;32.06;34.39453;960.9419;;;;
2019/07/25 10:54:31;;;;;;;10.6;3.1;;;;;;;32.04;34.46484;960.962;;;;
2019/07/25 10:56:56;;;;;;;13.1;2.9;;;;;;;32.13;33.40918;960.9274;;;;
2019/07/25 10:59:21;;;;;;;4.2;3;;;;;;;32.12;33.70996;960.8752;;;;
2019/07/25 11:01:46;;;;;;;4;2.6;;;;;;;32.28;34.47168;960.9346;;;;
2019/07/25 11:04:11;;;;;;;5.9;2.6;;;;;;;32.34;32.66309;960.9401;;;;
2019/07/25 11:06:37;;;;;;;6.4;2.8;;;;;;;32.32;34.02734;960.9285;;;;
2019/07/25 11:09:02;;;;;;;12.5;5.8;;;;;;;32.45;33.38379;960.895;;;;
2019/07/25 11:11:27;;;;;;;8;3.2;;;;;;;32.41;33.67188;960.8592;;;;
2019/07/25 11:13:52;;;;;;;6.8;2.6;;;;;;;32.41;33.10352;960.889;;;;
2019/07/25 11:16:18;;;;;;;5.8;2.9;;;;;;;32.48;33.26465;960.8697;;;;
2019/07/25 11:18:43;;;;;;;5.8;2.9;;;;;;;32.53;34.2002;960.8219;;;;
2019/07/25 11:21:08;;;;;;;7.5;2.8;;;;;;;32.37;33.14844;960.8058;;;;
2019/07/25 11:23:33;;;;;;;6.2;2.8;;;;;;;32.46;33.40918;960.8585;;;;
2019/07/25 11:25:58;;;;;;;34.1;4.2;;;;;;;32.41;33.10352;960.7833;;;;
2019/07/25 11:28:23;;;;;;;5.6;2.6;;;;;;;32.4;33.0293;960.7791;;;;
2019/07/25 11:30:48;;;;;;;22.4;3.6;;;;;;;32.36;33.05176;960.7333;;;;
2019/07/25 11:33:13;;;;;;;3;2.1;;;;;;;32.49;33.2666;960.6832;;;;
2019/07/25 11:35:38;;;;;;;5.6;2.2;;;;;;;32.47;32.20117;960.637;;;;
2019/07/25 11:38:04;;;;;;;4.5;2.4;;;;;;;32.53;32.9668;960.5874;;;;
2019/07/25 11:40:29;;;;;;;6.1;2.2;;;;;;;32.51;31.2959;960.5432;;;;
2019/07/25 11:42:54;;;;;;;6;2.4;;;;;;;32.67;30.89648;960.5945;;;;
2019/07/25 11:45:19;;;;;;;11.8;2.5;;;;;;;32.69;32.23926;960.5822;;;;
2019/07/25 11:47:44;;;;;;;4.6;2.1;;;;;;;32.81;30.19238;960.5687;;;;
2019/07/25 11:50:09;;;;;;;7.1;2.4;;;;;;;32.8;30.91699;960.5658;;;;
2019/07/25 11:52:34;;;;;;;9.7;2.4;;;;;;;32.94;30.18848;960.5941;;;;
2019/07/25 11:54:59;;;;;;;6.7;2.1;;;;;;;33.07;29.8584;960.5759;;;;
2019/07/25 11:57:24;;;;;;;4.8;2.4;;;;;;;33.02;30.75;960.5073;;;;
2019/07/25 11:59:49;;;;;;;8.4;2.4;;;;;;;33.18;30.25293;960.5811;;;;
2019/07/25 12:02:14;;;;;;;5.5;2.1;;;;;;;33.17;28.94434;960.5328;;;;
2019/07/25 12:04:39;;;;;;;4.2;2.1;;;;;;;33.12;29.65527;960.5496;;;;
2019/07/25 12:07:05;;;;;;;3.3;2;;;;;;;33.3;29.50977;960.5011;;;;
2019/07/25 12:09:30;;;;;;;4.2;2;;;;;;;33.35;29.25879;960.5005;;;;
2019/07/25 12:11:55;;;;;;;8.2;2;;;;;;;33.31;29.30371;960.5013;;;;
2019/07/25 12:14:20;;;;;;;3.7;1.9;;;;;;;33.21;29.625;960.5109;;;;
2019/07/25 12:16:45;;;;;;;5.4;2.3;;;;;;;33.24;29.6748;960.4105;;;;
2019/07/25 12:19:10;;;;;;;8.3;2.2;;;;;;;33.38;29.4541;960.3884;;;;
2019/07/25 12:21:35;;;;;;;5.1;2.1;;;;;;;33.42;30.57129;960.4489;;;;
2019/07/25 12:24:00;;;;;;;5.7;2.1;;;;;;;33.51;29.02637;960.4258;;;;
2019/07/25 12:26:25;;;;;;;4.9;2;;;;;;;33.51;29.62012;960.3226;;;;
2019/07/25 12:28:56;;;;;;;6.5;2.7;;;;;;;33.49;29.75195;960.3656;;;;
2019/07/25 12:31:22;;;;;;;4.6;2.3;;;;;;;33.75;29.01758;960.3098;;;;
2019/07/25 12:33:47;;;;;;;7.8;2.3;;;;;;;33.74;28.84766;960.2985;;;;
2019/07/25 12:36:12;;;;;;;5.3;2.2;;;;;;;33.93;29.1748;960.2629;;;;
2019/07/25 12:38:38;;;;;;;4.9;2.1;;;;;;;33.85;28.27148;960.2597;;;;
2019/07/25 12:41:03;;;;;;;10.3;2.5;;;;;;;34.08;28.37109;960.2208;;;;
2019/07/25 12:43:28;;;;;;;5.1;2;;;;;;;34.32;27.35352;960.2244;;;;
2019/07/25 12:45:53;;;;;;;4.5;2.4;;;;;;;34.31;27.38965;960.2103;;;;
2019/07/25 12:50:46;;;;;;;5.8;2.4;;;;;;;34.74;27.34277;960.1258;;;;
2019/07/25 12:53:11;;;;;;;4;2.1;;;;;;;34.81;27.06641;960.098;;;;
2019/07/25 12:55:36;;;;;;;6.1;2.3;;;;;;;34.55;29.10449;960.0953;;;;
2019/07/25 12:58:01;;;;;;;6.3;2.4;;;;;;;34.54;28.19238;960.1105;;;;
2019/07/25 13:00:26;;;;;;;3.7;2.3;;;;;;;34.71;27.19531;960.0377;;;;
2019/07/25 13:02:51;;;;;;;5.2;2.1;;;;;;;34.75;26.75977;959.9966;;;;
2019/07/25 13:05:16;;;;;;;4.4;2.2;;;;;;;34.92;27.00098;960.0262;;;;
2019/07/25 13:07:41;;;;;;;5.9;2;;;;;;;34.75;27.85352;960.0215;;;;
2019/07/25 13:10:06;;;;;;;4.5;1.8;;;;;;;34.97;27.07715;960.0494;;;;
2019/07/25 13:12:31;;;;;;;5.1;2.1;;;;;;;35;27.2002;959.9913;;;;
2019/07/25 13:14:57;;;;;;;6.6;2.4;;;;;;;34.96;26.49219;959.9753;;;;
2019/07/25 13:17:22;;;;;;;3.8;2.1;;;;;;;34.84;27.65234;959.894;;;;
2019/07/25 13:19:47;;;;;;;3.7;2;;;;;;;34.75;27.78027;959.9339;;;;
2019/07/25 13:22:12;;;;;;;5.4;1.9;;;;;;;34.85;28.57715;959.8731;;;;
2019/07/25 13:24:37;;;;;;;9;2.2;;;;;;;34.59;27.05371;959.9174;;;;
2019/07/25 13:27:02;;;;;;;3.6;1.9;;;;;;;34.6;27.60156;959.9255;;;;
2019/07/25 13:29:27;;;;;;;5.4;2.2;;;;;;;34.82;27.79688;959.8876;;;;
2019/07/25 13:31:52;;;;;;;4.5;2.4;;;;;;;34.9;28.00879;959.8258;;;;
2019/07/25 13:34:17;;;;;;;4.9;2;;;;;;;34.76;27.19727;959.832;;;;
2019/07/25 13:36:42;;;;;;;4.3;2.2;;;;;;;34.84;27.83496;959.7704;;;;
2019/07/25 13:39:08;;;;;;;5.2;2.4;;;;;;;34.75;27.40332;959.8013;;;;
2019/07/25 13:41:33;;;;;;;5.2;2.2;;;;;;;34.89;27.1084;959.7731;;;;
2019/07/25 13:43:58;;;;;;;3.3;2;;;;;;;34.73;27.9375;959.753;;;;
2019/07/25 13:46:23;;;;;;;5.7;2.2;;;;;;;34.8;26.61719;959.7885;;;;
2019/07/25 13:48:48;;;;;;;3.3;2;;;;;;;34.86;27.33691;959.7383;;;;
2019/07/25 13:51:13;;;;;;;2.9;2.3;;;;;;;35.08;27.8125;959.7908;;;;
2019/07/25 13:53:38;;;;;;;5.3;2;;;;;;;34.95;27.30664;959.7283;;;;
2019/07/25 13:56:03;;;;;;;7.1;2.4;;;;;;;34.7;26.89063;959.6696;;;;
2019/07/25 13:58:28;;;;;;;4.3;2.4;;;;;;;34.71;27.11035;959.6368;;;;
2019/07/25 14:00:53;;;;;;;3.3;2;;;;;;;34.6;27.15234;959.623;;;;
2019/07/25 14:03:19;;;;;;;4.4;2;;;;;;;34.76;27.31934;959.6675;;;;
2019/07/25 14:05:44;;;;;;;5.9;2.3;;;;;;;34.92;27.28027;959.6412;;;;
2019/07/25 14:08:09;;;;;;;4;2.2;;;;;;;35.01;26.82324;959.6459;;;;